Time;durP1;ratioP1;P1;durP2;ratioP2;P2;SDS_P1;SDS_P2;PMS_P1;PMS_P2;Temp;Humidity;BMP_temperature;BMP_pressure;BME280_temperature;BME280_humidity;BME280_pressure;Samples;Min_cycle;Max_cycle;Signal;HPM_P1;HPM_P2
2024/01/06 00:01:00;;;;;;;334.50;172.98;;;;;;;;;;5021587;28;20031;-90
2024/01/06 00:03:26;;;;;;;364.40;199.35;;;;;;;;;;5022611;28;20079;-91
2024/01/06 00:05:51;;;;;;;383.45;198.93;;;;;;;;;;5009756;28;20625;-90
2024/01/06 00:08:16;;;;;;;316.20;175.02;;;;;;;;;;5004718;28;20029;-91
2024/01/06 00:10:42;;;;;;;315.85;171.30;;;;;;;;;;5006198;28;21008;-92
2024/01/06 00:13:07;;;;;;;412.98;221.80;;;;;;;;;;4996917;28;20109;-92
2024/01/06 00:15:32;;;;;;;393.83;212.65;;;;;;;;;;5006666;28;20039;-90
2024/01/06 00:17:57;;;;;;;381.52;198.73;;;;;;;;;;5009942;28;20112;-91
2024/01/06 00:20:23;;;;;;;290.70;143.20;;;;;;;;;;5006712;28;20045;-91
2024/01/06 00:22:48;;;;;;;265.27;135.23;;;;;;;;;;5020506;28;20614;-90
2024/01/06 00:25:13;;;;;;;334.65;169.57;;;;;;;;;;5009792;28;20018;-90
2024/01/06 00:27:39;;;;;;;364.60;191.88;;;;;;;;;;4994863;28;20041;-91
2024/01/06 00:30:04;;;;;;;387.92;209.77;;;;;;;;;;5009920;28;20022;-90
2024/01/06 00:32:30;;;;;;;388.08;207.02;;;;;;;;;;5006867;28;20640;-90
2024/01/06 00:34:55;;;;;;;350.35;186.35;;;;;;;;;;5007747;28;20064;-91
2024/01/06 00:37:20;;;;;;;268.40;141.88;;;;;;;;;;5024154;28;20080;-92
2024/01/06 00:39:46;;;;;;;235.45;127.82;;;;;;;;;;5025051;28;20033;-92
2024/01/06 00:42:11;;;;;;;238.05;128.10;;;;;;;;;;5025947;28;20029;-92
2024/01/06 00:44:37;;;;;;;253.93;135.07;;;;;;;;;;5024351;28;20597;-92
2024/01/06 00:47:02;;;;;;;212.20;112.65;;;;;;;;;;5009958;28;20040;-91
2024/01/06 00:49:27;;;;;;;220.93;123.10;;;;;;;;;;5025485;28;20022;-92
2024/01/06 00:51:53;;;;;;;201.00;109.43;;;;;;;;;;5011011;28;20654;-91
2024/01/06 00:54:18;;;;;;;189.02;103.00;;;;;;;;;;5025423;28;20082;-91
2024/01/06 00:56:44;;;;;;;214.68;119.75;;;;;;;;;;5022445;28;20116;-91
2024/01/06 00:59:09;;;;;;;156.23;87.90;;;;;;;;;;5026021;28;20611;-91
2024/01/06 01:01:34;;;;;;;124.47;70.70;;;;;;;;;;5026103;28;20021;-91
2024/01/06 01:04:00;;;;;;;84.82;50.45;;;;;;;;;;5007969;28;20542;-90
2024/01/06 01:06:25;;;;;;;104.47;59.42;;;;;;;;;;5026148;28;20642;-90
2024/01/06 01:08:50;;;;;;;59.88;35.72;;;;;;;;;;5018097;28;20020;-90
2024/01/06 01:11:16;;;;;;;88.75;51.35;;;;;;;;;;5028626;28;20234;-90
2024/01/06 01:13:41;;;;;;;107.85;56.47;;;;;;;;;;5035931;28;20053;-91
2024/01/06 01:16:06;;;;;;;28.63;16.45;;;;;;;;;;5050857;28;20045;-91
2024/01/06 01:18:32;;;;;;;160.88;82.20;;;;;;;;;;5035120;28;20025;-91
2024/01/06 01:20:57;;;;;;;18.58;12.48;;;;;;;;;;5050022;28;20084;-91
2024/01/06 01:23:22;;;;;;;14.90;9.20;;;;;;;;;;5051120;28;20084;-91
2024/01/06 01:25:47;;;;;;;23.85;14.27;;;;;;;;;;5050367;28;20009;-91
2024/01/06 01:28:13;;;;;;;54.40;33.17;;;;;;;;;;5029412;28;20044;-90
2024/01/06 01:30:38;;;;;;;51.28;32.88;;;;;;;;;;5013181;28;20053;-91
2024/01/06 01:33:03;;;;;;;49.70;32.75;;;;;;;;;;5029969;28;20071;-90
2024/01/06 01:35:29;;;;;;;43.90;28.35;;;;;;;;;;5012723;28;20210;-91
2024/01/06 01:37:54;;;;;;;53.38;35.67;;;;;;;;;;5017393;28;20053;-90
2024/01/06 01:40:20;;;;;;;55.13;35.17;;;;;;;;;;5030137;28;20040;-90
2024/01/06 01:42:46;;;;;;;29.98;17.83;;;;;;;;;;5012584;28;20030;-90
2024/01/06 01:45:11;;;;;;;38.22;22.50;;;;;;;;;;5029463;28;20028;-90
2024/01/06 01:47:39;;;;;;;43.45;26.15;;;;;;;;;;5028781;28;20104;-90
2024/01/06 01:50:04;;;;;;;36.50;23.70;;;;;;;;;;5027929;28;20112;-90
2024/01/06 01:52:31;;;;;;;37.95;22.73;;;;;;;;;;5029879;28;20068;-91
2024/01/06 01:54:56;;;;;;;31.05;17.92;;;;;;;;;;5023714;28;20057;-90
2024/01/06 01:57:23;;;;;;;27.15;15.93;;;;;;;;;;5026120;28;20081;-91
2024/01/06 01:59:49;;;;;;;34.38;18.73;;;;;;;;;;5025445;28;20079;-91
2024/01/06 02:02:15;;;;;;;31.77;19.80;;;;;;;;;;5013157;28;20033;-91
2024/01/06 02:04:41;;;;;;;33.40;20.38;;;;;;;;;;5008850;28;20025;-90
2024/01/06 02:07:06;;;;;;;30.88;17.77;;;;;;;;;;5007616;28;20108;-91
2024/01/06 02:09:31;;;;;;;52.83;29.00;;;;;;;;;;5015358;28;20052;-92
2024/01/06 02:11:58;;;;;;;160.32;67.25;;;;;;;;;;5024653;28;20394;-91
2024/01/06 02:14:23;;;;;;;34.22;18.95;;;;;;;;;;5007467;28;20133;-91
2024/01/06 02:16:48;;;;;;;33.65;18.52;;;;;;;;;;5008810;28;20494;-91
2024/01/06 02:19:15;;;;;;;25.23;14.15;;;;;;;;;;5010055;28;20017;-90
2024/01/06 02:21:41;;;;;;;45.33;24.85;;;;;;;;;;4992153;28;20122;-90
2024/01/06 02:24:06;;;;;;;27.17;15.82;;;;;;;;;;5007152;28;20108;-91
2024/01/06 02:26:32;;;;;;;24.45;14.85;;;;;;;;;;5023523;28;20644;-91
2024/01/06 02:28:57;;;;;;;27.58;16.67;;;;;;;;;;5024412;28;20022;-92
2024/01/06 02:31:22;;;;;;;29.40;17.70;;;;;;;;;;5005761;28;20044;-91
2024/01/06 02:33:48;;;;;;;35.60;20.40;;;;;;;;;;5025358;28;20395;-91
2024/01/06 02:36:13;;;;;;;22.92;12.68;;;;;;;;;;5006344;28;20058;-90
2024/01/06 02:38:38;;;;;;;29.45;15.23;;;;;;;;;;5008479;28;20069;-90
2024/01/06 02:41:04;;;;;;;60.42;29.80;;;;;;;;;;5021854;28;20464;-90
2024/01/06 02:43:29;;;;;;;29.38;17.35;;;;;;;;;;5022006;28;20018;-90
2024/01/06 02:45:54;;;;;;;22.85;12.82;;;;;;;;;;5021239;28;20032;-90
2024/01/06 02:48:19;;;;;;;34.50;21.65;;;;;;;;;;5004599;28;20032;-91
2024/01/06 02:50:45;;;;;;;17.60;11.55;;;;;;;;;;5022429;28;20041;-90
2024/01/06 02:53:12;;;;;;;14.18;9.77;;;;;;;;;;5003821;28;20025;-91
2024/01/06 02:55:37;;;;;;;23.77;13.52;;;;;;;;;;5021361;28;20282;-91
2024/01/06 02:58:04;;;;;;;42.50;19.38;;;;;;;;;;5007789;28;20037;-90
2024/01/06 03:00:30;;;;;;;513.28;224.52;;;;;;;;;;5007656;28;20037;-90
2024/01/06 03:02:55;;;;;;;45.70;24.85;;;;;;;;;;5020597;28;20079;-90
2024/01/06 03:05:20;;;;;;;35.03;20.77;;;;;;;;;;5006242;28;20037;-91
2024/01/06 03:07:45;;;;;;;24.15;16.40;;;;;;;;;;5026808;28;20021;-91
2024/01/06 03:10:11;;;;;;;20.83;12.43;;;;;;;;;;5009031;28;20053;-91
2024/01/06 03:12:36;;;;;;;26.80;15.35;;;;;;;;;;5005978;28;20024;-91
2024/01/06 03:15:01;;;;;;;26.63;16.85;;;;;;;;;;5006491;28;20105;-91
2024/01/06 03:17:28;;;;;;;29.63;17.55;;;;;;;;;;5005736;28;20029;-90
2024/01/06 03:19:54;;;;;;;21.88;14.18;;;;;;;;;;5009138;28;20021;-90
2024/01/06 03:22:19;;;;;;;29.80;17.40;;;;;;;;;;5005061;28;20095;-91
2024/01/06 03:24:44;;;;;;;26.42;15.10;;;;;;;;;;5019765;28;20057;-90
2024/01/06 03:27:10;;;;;;;24.02;15.50;;;;;;;;;;5022871;28;20020;-91
2024/01/06 03:29:35;;;;;;;30.52;18.33;;;;;;;;;;5004477;28;20032;-90
2024/01/06 03:32:01;;;;;;;34.17;19.50;;;;;;;;;;5022386;28;20100;-90
2024/01/06 03:34:26;;;;;;;31.38;18.08;;;;;;;;;;5005097;28;20554;-91
2024/01/06 03:36:51;;;;;;;37.33;22.48;;;;;;;;;;5021691;28;20757;-91
2024/01/06 03:39:17;;;;;;;42.45;24.15;;;;;;;;;;5005417;28;20638;-90
2024/01/06 03:41:42;;;;;;;30.65;19.27;;;;;;;;;;5005241;28;20026;-91
2024/01/06 03:44:07;;;;;;;57.40;34.75;;;;;;;;;;5004179;28;20061;-91
2024/01/06 03:46:34;;;;;;;53.03;30.42;;;;;;;;;;4986469;28;20656;-90
2024/01/06 03:48:59;;;;;;;63.65;40.72;;;;;;;;;;5007220;28;20618;-90
2024/01/06 03:51:25;;;;;;;98.70;54.80;;;;;;;;;;5020016;28;20064;-90
2024/01/06 03:53:50;;;;;;;82.60;46.33;;;;;;;;;;5006449;28;20031;-90
2024/01/06 03:56:15;;;;;;;130.15;65.80;;;;;;;;;;4987214;28;20649;-91
2024/01/06 03:58:41;;;;;;;133.07;73.78;;;;;;;;;;5005369;28;20057;-90
2024/01/06 04:01:06;;;;;;;132.00;69.43;;;;;;;;;;5024875;28;20557;-89
2024/01/06 04:03:31;;;;;;;132.15;68.03;;;;;;;;;;5024219;28;20414;-91
2024/01/06 04:05:57;;;;;;;135.15;69.72;;;;;;;;;;5023968;28;20029;-91
2024/01/06 04:08:22;;;;;;;118.57;60.80;;;;;;;;;;5023130;28;20559;-90
2024/01/06 04:10:47;;;;;;;102.75;58.25;;;;;;;;;;5012659;28;20029;-90
2024/01/06 04:13:12;;;;;;;117.22;61.50;;;;;;;;;;5024996;28;20029;-91
2024/01/06 04:15:38;;;;;;;115.45;67.22;;;;;;;;;;5025988;28;20078;-90
2024/01/06 04:18:04;;;;;;;146.82;83.05;;;;;;;;;;5005878;28;20078;-90
2024/01/06 04:20:29;;;;;;;144.38;77.78;;;;;;;;;;5012689;28;20036;-91
2024/01/06 04:22:54;;;;;;;148.27;81.43;;;;;;;;;;5005766;28;20021;-90
2024/01/06 04:25:21;;;;;;;137.20;74.75;;;;;;;;;;5012329;28;20112;-90
2024/01/06 04:27:46;;;;;;;135.45;74.80;;;;;;;;;;5001637;28;20563;-90
2024/01/06 04:30:13;;;;;;;141.63;70.50;;;;;;;;;;5007929;28;20032;-90
2024/01/06 04:32:38;;;;;;;130.32;74.20;;;;;;;;;;5022971;28;20096;-91
2024/01/06 04:35:04;;;;;;;130.23;70.53;;;;;;;;;;5012030;28;20021;-91
2024/01/06 04:37:29;;;;;;;94.25;54.17;;;;;;;;;;5006123;28;20045;-91
2024/01/06 04:39:54;;;;;;;80.55;47.45;;;;;;;;;;5009459;28;20028;-90
2024/01/06 04:42:22;;;;;;;133.90;69.63;;;;;;;;;;5024173;28;20036;-90
2024/01/06 04:44:47;;;;;;;112.20;62.60;;;;;;;;;;5022676;28;20594;-90
2024/01/06 04:47:12;;;;;;;96.28;55.67;;;;;;;;;;5025797;28;20028;-90
2024/01/06 04:49:38;;;;;;;80.07;45.17;;;;;;;;;;5007572;28;20049;-89
2024/01/06 04:52:03;;;;;;;50.38;29.95;;;;;;;;;;5007321;28;20029;-91
2024/01/06 04:54:28;;;;;;;47.35;25.73;;;;;;;;;;5005611;28;20029;-91
2024/01/06 04:56:54;;;;;;;49.58;27.08;;;;;;;;;;5008122;28;20457;-90
2024/01/06 04:59:19;;;;;;;39.42;23.88;;;;;;;;;;5022332;28;20026;-90
2024/01/06 05:01:44;;;;;;;39.70;24.08;;;;;;;;;;5024846;28;20052;-90
2024/01/06 05:04:10;;;;;;;40.00;23.20;;;;;;;;;;4989611;28;20026;-90
2024/01/06 05:06:35;;;;;;;34.22;20.90;;;;;;;;;;5023821;28;20026;-90
2024/01/06 05:09:00;;;;;;;34.05;20.73;;;;;;;;;;5007007;28;20503;-90
2024/01/06 05:11:26;;;;;;;34.80;21.05;;;;;;;;;;5005530;28;20040;-91
2024/01/06 05:13:51;;;;;;;35.40;20.73;;;;;;;;;;5007056;28;20025;-90
2024/01/06 05:16:16;;;;;;;28.92;19.13;;;;;;;;;;5022521;28;20070;-90
2024/01/06 05:18:41;;;;;;;26.20;16.42;;;;;;;;;;5007553;28;20118;-91
2024/01/06 05:21:07;;;;;;;30.52;17.42;;;;;;;;;;5024732;28;20029;-89
2024/01/06 05:23:32;;;;;;;24.10;15.00;;;;;;;;;;5023911;28;20018;-90
2024/01/06 05:25:57;;;;;;;23.13;16.73;;;;;;;;;;5021837;28;20444;-90
2024/01/06 05:28:23;;;;;;;24.92;15.60;;;;;;;;;;5022250;28;20040;-90
2024/01/06 05:30:48;;;;;;;24.30;16.95;;;;;;;;;;5006253;28;20025;-90
2024/01/06 05:33:15;;;;;;;30.10;18.20;;;;;;;;;;5006820;28;20113;-91
2024/01/06 05:35:40;;;;;;;24.75;17.25;;;;;;;;;;5027349;28;20033;-91
2024/01/06 05:38:05;;;;;;;39.78;24.77;;;;;;;;;;5012920;28;20195;-91
2024/01/06 05:40:31;;;;;;;44.17;29.67;;;;;;;;;;5024816;28;20042;-89
2024/01/06 05:42:56;;;;;;;34.50;22.33;;;;;;;;;;5005247;28;20021;-91
2024/01/06 05:45:22;;;;;;;38.85;26.60;;;;;;;;;;5024750;28;20029;-89
2024/01/06 05:47:47;;;;;;;34.35;22.58;;;;;;;;;;5005042;28;20071;-87
2024/01/06 05:50:15;;;;;;;47.58;29.50;;;;;;;;;;5025606;28;20554;-91
2024/01/06 05:52:40;;;;;;;45.83;32.22;;;;;;;;;;5009473;28;20025;-91
2024/01/06 05:55:06;;;;;;;42.05;28.60;;;;;;;;;;5010841;28;20521;-92
2024/01/06 05:57:31;;;;;;;35.08;22.67;;;;;;;;;;5027837;28;20021;-91
2024/01/06 05:59:56;;;;;;;32.20;20.40;;;;;;;;;;5026572;28;20116;-90
2024/01/06 06:02:22;;;;;;;31.58;20.60;;;;;;;;;;5027692;28;20060;-92
2024/01/06 06:04:47;;;;;;;40.53;26.63;;;;;;;;;;5008027;28;20116;-92
2024/01/06 06:07:12;;;;;;;37.40;24.10;;;;;;;;;;5028454;28;20067;-91
2024/01/06 06:09:39;;;;;;;45.30;26.95;;;;;;;;;;5008955;28;20025;-92
2024/01/06 06:12:05;;;;;;;50.78;29.63;;;;;;;;;;5028259;28;20025;-90
2024/01/06 06:14:30;;;;;;;51.50;27.50;;;;;;;;;;5028726;28;20091;-91
2024/01/06 06:16:56;;;;;;;52.67;28.05;;;;;;;;;;5012050;28;20037;-91
2024/01/06 06:19:22;;;;;;;46.08;28.67;;;;;;;;;;5026914;28;20033;-91
2024/01/06 06:21:47;;;;;;;101.00;42.55;;;;;;;;;;5033615;28;20045;-90
2024/01/06 06:24:13;;;;;;;87.00;39.97;;;;;;;;;;5013011;28;20030;-88
2024/01/06 06:26:38;;;;;;;58.53;33.67;;;;;;;;;;5017753;28;20121;-89
2024/01/06 06:29:04;;;;;;;52.03;29.65;;;;;;;;;;5012782;28;20025;-90
2024/01/06 06:31:29;;;;;;;29.88;18.42;;;;;;;;;;5029114;28;20109;-90
2024/01/06 06:33:54;;;;;;;54.92;29.17;;;;;;;;;;5013710;28;20028;-91
2024/01/06 06:36:20;;;;;;;46.08;29.30;;;;;;;;;;5025248;28;20032;-90
2024/01/06 06:38:45;;;;;;;56.17;35.42;;;;;;;;;;5011973;28;20049;-90
2024/01/06 06:41:11;;;;;;;56.20;32.50;;;;;;;;;;5030856;28;20037;-90
2024/01/06 06:43:36;;;;;;;53.22;30.85;;;;;;;;;;5016960;28;20225;-90
2024/01/06 06:46:02;;;;;;;31.20;19.42;;;;;;;;;;5011531;28;20024;-91
2024/01/06 06:48:27;;;;;;;25.92;17.83;;;;;;;;;;5030337;28;20028;-90
2024/01/06 06:50:53;;;;;;;25.80;17.85;;;;;;;;;;5030579;28;20201;-90
2024/01/06 06:53:18;;;;;;;37.67;21.00;;;;;;;;;;5025417;28;20079;-90
2024/01/06 06:55:43;;;;;;;49.13;29.45;;;;;;;;;;5008610;28;20028;-89
2024/01/06 06:58:09;;;;;;;43.33;26.00;;;;;;;;;;5008447;28;20599;-90
2024/01/06 07:00:35;;;;;;;52.50;27.27;;;;;;;;;;5008532;28;20018;-90
2024/01/06 07:03:00;;;;;;;48.72;26.35;;;;;;;;;;5013877;28;20438;-90
2024/01/06 07:05:25;;;;;;;61.45;31.98;;;;;;;;;;5008488;28;20025;-90
2024/01/06 07:07:50;;;;;;;65.07;37.08;;;;;;;;;;5025519;28;20041;-89
2024/01/06 07:10:16;;;;;;;69.70;43.42;;;;;;;;;;5025080;28;20055;-90
2024/01/06 07:12:42;;;;;;;52.97;33.13;;;;;;;;;;5015443;28;20021;-91
2024/01/06 07:15:10;;;;;;;50.03;29.92;;;;;;;;;;5009309;28;20017;-91
2024/01/06 07:17:35;;;;;;;60.35;35.45;;;;;;;;;;5015254;28;20437;-91
2024/01/06 07:20:00;;;;;;;44.75;28.63;;;;;;;;;;5009244;28;20029;-92
2024/01/06 07:22:25;;;;;;;40.80;27.35;;;;;;;;;;5009855;28;20331;-91
2024/01/06 07:24:51;;;;;;;46.00;27.95;;;;;;;;;;5009720;28;20021;-93
2024/01/06 07:27:16;;;;;;;43.95;25.13;;;;;;;;;;5009635;28;20866;-91
2024/01/06 07:29:41;;;;;;;54.65;28.40;;;;;;;;;;5026856;28;20109;-91
2024/01/06 07:32:07;;;;;;;40.67;22.60;;;;;;;;;;5002538;28;20025;-91
2024/01/06 07:34:32;;;;;;;72.78;42.10;;;;;;;;;;5014173;28;20059;-91
2024/01/06 07:36:58;;;;;;;54.05;32.58;;;;;;;;;;5012448;28;20045;-92
2024/01/06 07:39:24;;;;;;;60.88;36.92;;;;;;;;;;5013755;28;20114;-92
2024/01/06 07:41:49;;;;;;;64.30;39.85;;;;;;;;;;5014609;28;20143;-92
2024/01/06 07:44:22;;;;;;;61.10;37.72;;;;;;;;;;5015385;28;20491;-92
2024/01/06 07:46:47;;;;;;;110.07;57.55;;;;;;;;;;5010618;28;20025;-92
2024/01/06 07:49:12;;;;;;;65.32;40.85;;;;;;;;;;5031094;28;20021;-92
2024/01/06 07:51:38;;;;;;;74.18;44.90;;;;;;;;;;5012222;28;20037;-92
2024/01/06 07:54:05;;;;;;;106.85;57.25;;;;;;;;;;5015485;28;20021;-92
2024/01/06 07:56:30;;;;;;;94.28;52.38;;;;;;;;;;5012887;28;20091;-91
2024/01/06 07:58:55;;;;;;;99.05;54.78;;;;;;;;;;5012667;28;20022;-90
2024/01/06 08:01:21;;;;;;;72.68;45.33;;;;;;;;;;5012195;28;20515;-90
2024/01/06 08:03:46;;;;;;;77.90;44.40;;;;;;;;;;5013903;28;20025;-91
2024/01/06 08:06:12;;;;;;;57.55;36.58;;;;;;;;;;5009761;28;20061;-91
2024/01/06 08:08:37;;;;;;;65.18;41.60;;;;;;;;;;5029405;28;20027;-91
2024/01/06 08:11:02;;;;;;;47.80;32.47;;;;;;;;;;5011608;28;20037;-91
2024/01/06 08:13:28;;;;;;;49.35;31.08;;;;;;;;;;5027821;28;20622;-91
2024/01/06 08:15:53;;;;;;;73.75;42.30;;;;;;;;;;5010491;28;20025;-90
2024/01/06 08:18:18;;;;;;;68.32;39.85;;;;;;;;;;5013402;28;20021;-91
2024/01/06 08:20:43;;;;;;;59.20;35.65;;;;;;;;;;5011659;28;20399;-90
2024/01/06 08:23:10;;;;;;;52.03;34.17;;;;;;;;;;5012433;28;20013;-90
2024/01/06 08:25:35;;;;;;;54.83;35.65;;;;;;;;;;5030223;28;20033;-90
2024/01/06 08:28:01;;;;;;;77.93;46.45;;;;;;;;;;5030813;28;20028;-89
2024/01/06 08:30:26;;;;;;;58.13;38.83;;;;;;;;;;5029588;28;20022;-89
2024/01/06 08:32:52;;;;;;;40.53;28.75;;;;;;;;;;5011647;28;20664;-89
2024/01/06 08:35:17;;;;;;;44.20;29.42;;;;;;;;;;5027879;28;20144;-91
2024/01/06 08:37:44;;;;;;;38.25;28.00;;;;;;;;;;5028923;28;20389;-90
2024/01/06 08:40:09;;;;;;;38.78;27.15;;;;;;;;;;5012142;28;20395;-88
2024/01/06 08:42:34;;;;;;;38.88;27.00;;;;;;;;;;5011460;28;20021;-89
2024/01/06 08:45:03;;;;;;;49.35;32.50;;;;;;;;;;5013306;28;20014;-90
2024/01/06 08:47:29;;;;;;;;;;;;;;;;;;4999402;28;20373;-90
2024/01/06 08:49:54;;;;;;;45.92;30.83;;;;;;;;;;5028244;28;19955;-91
2024/01/06 08:52:19;;;;;;;35.15;22.83;;;;;;;;;;5029223;28;20053;-90
2024/01/06 08:54:45;;;;;;;33.90;22.30;;;;;;;;;;5028256;28;20021;-90
2024/01/06 08:57:10;;;;;;;34.70;24.55;;;;;;;;;;5011547;28;20078;-90
2024/01/06 08:59:35;;;;;;;38.97;26.58;;;;;;;;;;5021130;28;20033;-89
2024/01/06 09:02:01;;;;;;;40.17;25.23;;;;;;;;;;5013415;28;20222;-90
2024/01/06 09:04:26;;;;;;;38.67;27.80;;;;;;;;;;5031784;28;20108;-90
2024/01/06 09:06:51;;;;;;;59.17;36.90;;;;;;;;;;5011519;28;20035;-89
2024/01/06 09:09:17;;;;;;;59.05;35.35;;;;;;;;;;5011987;28;20471;-89
2024/01/06 09:11:44;;;;;;;37.63;25.65;;;;;;;;;;5012691;28;20057;-90
2024/01/06 09:14:10;;;;;;;35.80;24.35;;;;;;;;;;5028774;28;20087;-90
2024/01/06 09:16:35;;;;;;;52.25;30.48;;;;;;;;;;5010996;28;20079;-91
2024/01/06 09:19:01;;;;;;;86.97;47.17;;;;;;;;;;5027248;28;20025;-90
2024/01/06 09:21:26;;;;;;;68.55;40.65;;;;;;;;;;5010169;28;20104;-91
2024/01/06 09:23:51;;;;;;;91.10;50.75;;;;;;;;;;5012117;28;20025;-89
2024/01/06 09:26:17;;;;;;;84.25;44.75;;;;;;;;;;5026870;28;20029;-89
2024/01/06 09:28:42;;;;;;;71.20;42.50;;;;;;;;;;5029416;28;20026;-90
2024/01/06 09:31:07;;;;;;;66.93;42.88;;;;;;;;;;5016906;28;20107;-90
2024/01/06 09:33:33;;;;;;;58.97;36.90;;;;;;;;;;5011141;28;20032;-88
2024/01/06 09:36:00;;;;;;;51.08;33.13;;;;;;;;;;5028945;28;20025;-88
2024/01/06 09:38:26;;;;;;;51.60;33.53;;;;;;;;;;5011059;28;20192;-90
2024/01/06 09:40:53;;;;;;;63.17;39.22;;;;;;;;;;4989007;28;20120;-90
2024/01/06 09:43:18;;;;;;;56.03;38.08;;;;;;;;;;5007902;28;20501;-90
2024/01/06 09:45:45;;;;;;;58.90;37.60;;;;;;;;;;5008293;28;20046;-89
2024/01/06 09:48:12;;;;;;;46.78;31.02;;;;;;;;;;5007880;28;20507;-90
2024/01/06 09:50:40;;;;;;;48.35;31.48;;;;;;;;;;5000377;28;20557;-90
2024/01/06 09:53:06;;;;;;;47.78;30.35;;;;;;;;;;5004390;28;20391;-90
2024/01/06 09:55:32;;;;;;;48.58;30.83;;;;;;;;;;5008240;28;20054;-89
2024/01/06 09:57:58;;;;;;;47.00;30.40;;;;;;;;;;4990561;28;20113;-89
2024/01/06 10:00:23;;;;;;;39.05;25.90;;;;;;;;;;4995996;28;20475;-89
2024/01/06 10:02:48;;;;;;;37.65;24.98;;;;;;;;;;5011651;28;20022;-90
2024/01/06 10:05:15;;;;;;;37.63;23.33;;;;;;;;;;5009093;28;20025;-90
2024/01/06 10:07:44;;;;;;;40.70;27.63;;;;;;;;;;4994395;28;20161;-89
2024/01/06 10:10:10;;;;;;;42.90;28.00;;;;;;;;;;4992450;28;20026;-89
2024/01/06 10:12:37;;;;;;;47.60;28.95;;;;;;;;;;4996210;28;20121;-89
2024/01/06 10:15:03;;;;;;;34.50;23.65;;;;;;;;;;5007894;28;20076;-88
2024/01/06 10:17:43;;;;;;;43.40;28.13;;;;;;;;;;5072367;28;20424;-86
2024/01/06 10:20:10;;;;;;;46.90;31.55;;;;;;;;;;5046512;28;20509;-85
2024/01/06 10:22:36;;;;;;;38.63;23.75;;;;;;;;;;5062893;28;20025;-87
2024/01/06 10:25:02;;;;;;;54.47;33.78;;;;;;;;;;5062315;28;20025;-87
2024/01/06 10:27:27;;;;;;;50.85;32.58;;;;;;;;;;5062368;28;20478;-86
2024/01/06 10:29:52;;;;;;;59.30;34.10;;;;;;;;;;5062903;28;20025;-87
2024/01/06 10:32:18;;;;;;;60.67;34.53;;;;;;;;;;5063683;28;20497;-86
2024/01/06 10:34:43;;;;;;;57.55;36.35;;;;;;;;;;5063334;28;20031;-86
2024/01/06 10:37:09;;;;;;;47.55;32.10;;;;;;;;;;5064189;28;20052;-88
2024/01/06 10:39:34;;;;;;;44.90;29.95;;;;;;;;;;5062246;28;20051;-87
2024/01/06 10:42:00;;;;;;;55.33;32.05;;;;;;;;;;5062026;28;20041;-87
2024/01/06 10:44:26;;;;;;;62.38;37.25;;;;;;;;;;5064165;28;20021;-88
2024/01/06 10:46:52;;;;;;;42.85;26.85;;;;;;;;;;5063604;28;20501;-87
2024/01/06 10:49:21;;;;;;;40.88;26.58;;;;;;;;;;5063154;28;20033;-86
2024/01/06 10:51:48;;;;;;;43.80;26.88;;;;;;;;;;5061829;28;20021;-87
2024/01/06 10:54:14;;;;;;;36.25;23.60;;;;;;;;;;5064893;28;20422;-88
2024/01/06 10:56:39;;;;;;;36.53;24.75;;;;;;;;;;5063736;28;20025;-87
2024/01/06 10:59:05;;;;;;;44.75;28.58;;;;;;;;;;5062576;28;20012;-87
2024/01/06 11:01:31;;;;;;;40.95;27.20;;;;;;;;;;5061961;28;20394;-88
2024/01/06 11:03:57;;;;;;;38.00;26.17;;;;;;;;;;5063840;28;20332;-88
2024/01/06 11:06:22;;;;;;;36.90;23.02;;;;;;;;;;5063744;28;20453;-88
2024/01/06 11:08:55;;;;;;;35.67;21.70;;;;;;;;;;5061923;28;20371;-88
2024/01/06 11:11:21;;;;;;;27.67;18.77;;;;;;;;;;5060793;28;20029;-88
2024/01/06 11:13:47;;;;;;;28.20;19.02;;;;;;;;;;5055499;28;20651;-88
2024/01/06 11:16:33;;;;;;;30.67;19.20;;;;;;;;;;5058679;28;20040;-90
2024/01/06 11:18:58;;;;;;;29.48;20.25;;;;;;;;;;5050887;28;20024;-88
2024/01/06 11:21:26;;;;;;;34.67;23.40;;;;;;;;;;5061636;28;20466;-87
2024/01/06 11:24:26;;;;;;;31.67;22.20;;;;;;;;;;5054147;28;20016;-87
2024/01/06 11:26:52;;;;;;;32.95;21.98;;;;;;;;;;4994533;28;20030;-87
2024/01/06 11:29:21;;;;;;;35.60;22.63;;;;;;;;;;4971732;28;20044;-88
2024/01/06 11:32:05;;;;;;;32.22;22.27;;;;;;;;;;4985671;28;20125;-88
2024/01/06 11:34:31;;;;;;;35.42;22.77;;;;;;;;;;4973542;28;20026;-87
2024/01/06 11:36:57;;;;;;;34.40;23.38;;;;;;;;;;4983812;28;20061;-88
2024/01/06 11:39:36;;;;;;;31.83;22.00;;;;;;;;;;4971188;28;20022;-84
2024/01/06 11:42:02;;;;;;;31.73;22.65;;;;;;;;;;4986617;28;20521;-88
2024/01/06 11:44:28;;;;;;;30.73;22.75;;;;;;;;;;4970693;28;20026;-88
2024/01/06 11:46:56;;;;;;;34.70;24.67;;;;;;;;;;4971331;28;20022;-89
2024/01/06 11:49:21;;;;;;;36.63;24.88;;;;;;;;;;4968879;28;20068;-88
2024/01/06 11:51:46;;;;;;;35.70;25.55;;;;;;;;;;4970823;28;20109;-90
2024/01/06 11:54:12;;;;;;;32.42;22.40;;;;;;;;;;4987518;28;20842;-88
2024/01/06 11:56:38;;;;;;;34.10;23.35;;;;;;;;;;4970034;28;20050;-89
2024/01/06 11:59:03;;;;;;;38.13;26.10;;;;;;;;;;4970441;28;20098;-89
2024/01/06 12:01:35;;;;;;;36.08;23.67;;;;;;;;;;4971394;28;20054;-90
2024/01/06 12:04:03;;;;;;;33.60;23.60;;;;;;;;;;5044849;28;20545;-87
2024/01/06 12:06:29;;;;;;;29.50;20.98;;;;;;;;;;5046705;28;20040;-88
2024/01/06 12:09:03;;;;;;;32.78;22.75;;;;;;;;;;5048995;28;20310;-88
2024/01/06 12:11:28;;;;;;;35.72;23.23;;;;;;;;;;5034674;28;20036;-89
2024/01/06 12:13:53;;;;;;;32.67;21.98;;;;;;;;;;5045386;28;20025;-89
2024/01/06 12:16:18;;;;;;;29.58;22.75;;;;;;;;;;5047767;28;20446;-88
2024/01/06 12:18:44;;;;;;;32.92;22.30;;;;;;;;;;5047673;28;20067;-88
2024/01/06 12:21:09;;;;;;;31.85;22.75;;;;;;;;;;5047724;28;20111;-88
2024/01/06 12:23:34;;;;;;;32.20;23.48;;;;;;;;;;5039809;28;20024;-87
2024/01/06 12:26:00;;;;;;;31.90;22.90;;;;;;;;;;5038665;28;20032;-88
2024/01/06 12:28:27;;;;;;;34.22;23.90;;;;;;;;;;5039817;28;20056;-87
2024/01/06 12:30:53;;;;;;;33.47;23.00;;;;;;;;;;5049052;28;20028;-88
2024/01/06 12:33:19;;;;;;;38.08;27.85;;;;;;;;;;5046602;28;20499;-87
2024/01/06 12:35:44;;;;;;;34.63;23.48;;;;;;;;;;5047787;28;20024;-86
2024/01/06 12:38:09;;;;;;;33.80;22.17;;;;;;;;;;5046106;28;20029;-87
2024/01/06 12:40:35;;;;;;;35.38;23.35;;;;;;;;;;5044701;28;20021;-86
2024/01/06 12:43:00;;;;;;;45.17;27.08;;;;;;;;;;5044413;28;20485;-86
2024/01/06 12:45:27;;;;;;;32.08;23.25;;;;;;;;;;5045471;28;20013;-88
2024/01/06 12:47:53;;;;;;;36.42;25.02;;;;;;;;;;5044909;28;20108;-88
2024/01/06 12:50:19;;;;;;;32.83;22.58;;;;;;;;;;5047364;28;20025;-88
2024/01/06 12:52:45;;;;;;;33.42;21.35;;;;;;;;;;5042380;28;20079;-87
2024/01/06 12:55:11;;;;;;;37.33;24.08;;;;;;;;;;5045574;28;20052;-87
2024/01/06 12:57:36;;;;;;;43.90;27.95;;;;;;;;;;5046720;28;20056;-89
2024/01/06 13:00:02;;;;;;;44.42;26.73;;;;;;;;;;5043486;28;20035;-88
2024/01/06 13:02:27;;;;;;;39.28;24.88;;;;;;;;;;5040201;28;20456;-87
2024/01/06 13:04:52;;;;;;;34.30;23.73;;;;;;;;;;5041866;28;20071;-89
2024/01/06 13:07:18;;;;;;;30.85;22.85;;;;;;;;;;5041744;28;20024;-89
2024/01/06 13:09:44;;;;;;;31.58;21.63;;;;;;;;;;5042783;28;20024;-88
2024/01/06 13:12:09;;;;;;;32.20;21.23;;;;;;;;;;5043954;28;20074;-85
2024/01/06 13:14:36;;;;;;;29.40;20.45;;;;;;;;;;5027973;28;20491;-85
2024/01/06 13:17:02;;;;;;;30.67;20.05;;;;;;;;;;5036940;28;20444;-86
2024/01/06 13:19:27;;;;;;;29.48;20.05;;;;;;;;;;5038993;28;20041;-88
2024/01/06 13:21:52;;;;;;;29.45;20.17;;;;;;;;;;5041824;28;20528;-86
2024/01/06 13:24:18;;;;;;;28.52;20.42;;;;;;;;;;5043775;28;20546;-86
2024/01/06 13:26:43;;;;;;;29.27;20.08;;;;;;;;;;5043286;28;20079;-87
2024/01/06 13:29:10;;;;;;;30.38;20.98;;;;;;;;;;5044076;28;20040;-87
2024/01/06 13:31:37;;;;;;;42.17;27.00;;;;;;;;;;5043558;28;20024;-86
2024/01/06 13:34:02;;;;;;;75.30;52.70;;;;;;;;;;5044834;28;20028;-86
2024/01/06 13:36:27;;;;;;;64.13;44.15;;;;;;;;;;5020036;28;20033;-88
2024/01/06 13:38:53;;;;;;;65.72;46.47;;;;;;;;;;5019782;28;20036;-86
2024/01/06 13:41:18;;;;;;;48.58;35.33;;;;;;;;;;5019999;28;20095;-86
2024/01/06 13:43:43;;;;;;;65.35;45.65;;;;;;;;;;5004301;28;20013;-86
2024/01/06 13:46:10;;;;;;;53.38;38.85;;;;;;;;;;5018508;28;20068;-88
2024/01/06 13:48:36;;;;;;;99.30;72.28;;;;;;;;;;5020384;28;20022;-86
2024/01/06 13:51:01;;;;;;;69.75;48.78;;;;;;;;;;5019640;28;20112;-87
2024/01/06 13:53:27;;;;;;;53.03;35.78;;;;;;;;;;5003596;28;20128;-86
2024/01/06 13:55:52;;;;;;;47.47;31.88;;;;;;;;;;5017652;28;20041;-87
2024/01/06 13:58:18;;;;;;;54.15;36.88;;;;;;;;;;5002132;28;20177;-88
2024/01/06 14:00:44;;;;;;;61.40;41.65;;;;;;;;;;5003205;28;20234;-86
2024/01/06 14:03:10;;;;;;;59.70;41.25;;;;;;;;;;5001187;28;20042;-88
2024/01/06 14:05:37;;;;;;;61.00;39.80;;;;;;;;;;5002018;28;20413;-86